Time;durP1;ratioP1;P1;durP2;ratioP2;P2;SDS_P1;SDS_P2;PMS_P1;PMS_P2;Temp;Humidity;BMP_temperature;BMP_pressure;BME280_temperature;BME280_humidity;BME280_pressure;Samples;Min_cycle;Max_cycle;Signal;HPM_P1;HPM_P2
2022/09/11 00:00:44;;;;;;;2.58;1.90;;;;;;;16.69;77.68;100614.41;4097755;29;20481;-63
2022/09/11 00:02:49;;;;;;;3.83;1.83;;;;;;;16.71;77.66;100607.38;4097783;29;20045;-63
2022/09/11 00:04:51;;;;;;;2.58;2.03;;;;;;;16.68;78.01;100615.28;4092328;28;20470;-63
2022/09/11 00:06:55;;;;;;;5.32;2.67;;;;;;;16.71;77.70;100617.88;4102461;28;20469;-63
2022/09/11 00:09:00;;;;;;;4.75;2.45;;;;;;;16.73;77.61;100610.88;4098446;29;20062;-63
2022/09/11 00:11:06;;;;;;;2.58;2.00;;;;;;;16.70;77.45;100613.50;4099107;28;20050;-63
2022/09/11 00:13:10;;;;;;;5.57;2.70;;;;;;;16.68;77.19;100615.28;4098088;28;20055;-63
2022/09/11 00:15:13;;;;;;;2.35;2.10;;;;;;;16.73;77.63;100615.25;4098869;28;20078;-63
2022/09/11 00:17:17;;;;;;;4.75;2.10;;;;;;;16.77;77.57;100618.72;4082730;29;20043;-63
2022/09/11 00:19:21;;;;;;;3.92;2.25;;;;;;;16.73;77.50;100615.25;4098468;29;20122;-63
2022/09/11 00:21:24;;;;;;;3.60;2.13;;;;;;;16.72;77.24;100618.78;4098536;29;20043;-63
2022/09/11 00:23:28;;;;;;;6.40;2.72;;;;;;;16.66;77.24;100622.31;4110287;28;20042;-63
2022/09/11 00:25:33;;;;;;;6.18;2.80;;;;;;;16.64;77.51;100623.22;4115326;28;20386;-63
2022/09/11 00:27:36;;;;;;;3.40;2.13;;;;;;;16.72;77.24;100629.28;4098038;28;20074;-63
2022/09/11 00:29:39;;;;;;;3.90;2.35;;;;;;;16.66;77.31;100632.81;4098760;28;20046;-63
2022/09/11 00:31:42;;;;;;;2.42;1.98;;;;;;;16.64;77.27;100631.94;4098657;29;20035;-63
2022/09/11 00:33:45;;;;;;;3.70;1.98;;;;;;;16.62;77.39;100632.81;4097719;29;20031;-63
2022/09/11 00:35:57;;;;;;;3.40;2.50;;;;;;;16.65;77.09;100633.69;4097723;29;20813;-63
2022/09/11 00:38:00;;;;;;;3.80;1.95;;;;;;;16.62;77.14;100631.09;4098477;29;20045;-63
2022/09/11 00:40:03;;;;;;;6.97;2.35;;;;;;;16.66;77.32;100631.91;4098100;28;20118;-64
2022/09/11 00:42:07;;;;;;;5.25;2.65;;;;;;;16.69;76.85;100624.91;4098328;29;20035;-63
2022/09/11 00:44:44;;;;;;;3.17;2.28;;;;;;;16.71;76.66;100627.53;4095797;29;20051;-64
2022/09/11 00:46:49;;;;;;;6.05;2.50;;;;;;;16.66;77.23;100635.44;4108542;28;20058;-63
2022/09/11 00:48:56;;;;;;;3.80;2.00;;;;;;;16.67;77.01;100634.53;4099804;28;20055;-64
2022/09/11 00:51:02;;;;;;;4.20;2.70;;;;;;;16.68;77.14;100635.44;4097963;29;20094;-64
2022/09/11 00:53:08;;;;;;;4.70;2.10;;;;;;;16.69;77.25;100630.16;4087831;29;20449;-63
2022/09/11 00:55:14;;;;;;;6.03;2.47;;;;;;;16.67;76.94;100633.69;4098981;29;20043;-63
2022/09/11 00:57:22;;;;;;;3.38;2.17;;;;;;;16.69;77.00;100627.53;4116151;28;20074;-63
2022/09/11 00:59:26;;;;;;;5.22;2.80;;;;;;;16.66;76.63;100630.19;4112677;28;20039;-63
2022/09/11 01:01:29;;;;;;;;;;;;;;;16.60;77.18;100634.59;4094663;29;20035;-63
2022/09/11 01:03:32;;;;;;;5.40;2.22;;;;;;;16.67;77.32;100638.94;4092450;28;19953;-63
2022/09/11 01:05:38;;;;;;;7.60;2.53;;;;;;;16.72;77.06;100639.78;4099245;28;20047;-63
2022/09/11 01:07:43;;;;;;;4.50;2.20;;;;;;;16.78;77.26;100644.06;4081176;29;20050;-63
2022/09/11 01:09:47;;;;;;;7.75;2.38;;;;;;;16.75;76.84;100637.97;4097273;29;20039;-63
2022/09/11 01:11:55;;;;;;;3.53;2.20;;;;;;;16.77;76.45;100637.09;4096939;29;20043;-63
2022/09/11 01:14:09;;;;;;;4.55;2.50;;;;;;;16.78;76.39;100637.09;4096913;28;20446;-63
2022/09/11 01:16:19;;;;;;;5.68;2.28;;;;;;;16.76;76.62;100641.47;4097037;28;20039;-63
2022/09/11 01:18:29;;;;;;;3.25;2.28;;;;;;;16.70;76.48;100645.00;4098290;28;20118;-63
2022/09/11 01:20:42;;;;;;;4.85;2.83;;;;;;;16.69;76.71;100648.53;4105768;28;20035;-63
2022/09/11 01:23:03;;;;;;;3.60;2.20;;;;;;;16.72;76.45;100652.91;4097219;29;20074;-63
2022/09/11 01:25:16;;;;;;;2.50;2.10;;;;;;;16.75;76.84;100653.72;4098465;28;20043;-63
2022/09/11 01:27:46;;;;;;;3.75;2.20;;;;;;;16.72;76.20;100652.91;4081910;29;20154;-63
2022/09/11 01:29:58;;;;;;;3.47;2.20;;;;;;;16.74;76.54;100651.97;4110722;28;20059;-63
2022/09/11 01:32:13;;;;;;;3.17;2.38;;;;;;;16.80;76.49;100644.94;4097358;28;20039;-63
2022/09/11 01:34:22;;;;;;;3.47;2.17;;;;;;;16.80;76.48;100655.47;4097382;29;20044;-63
2022/09/11 01:36:29;;;;;;;4.28;2.38;;;;;;;16.82;76.16;100654.56;4095368;29;20031;-63
2022/09/11 01:38:36;;;;;;;5.75;2.28;;;;;;;16.77;76.34;100655.47;4090646;29;20039;-63
2022/09/11 01:40:47;;;;;;;4.35;2.45;;;;;;;16.79;76.29;100657.19;4098625;28;20043;-63
2022/09/11 01:42:54;;;;;;;4.97;2.55;;;;;;;16.76;75.96;100654.59;4100659;28;20532;-63
2022/09/11 01:44:59;;;;;;;5.55;2.40;;;;;;;16.80;76.27;100655.47;4098072;29;20552;-63
2022/09/11 01:47:05;;;;;;;3.47;2.35;;;;;;;16.86;76.12;100651.00;4096610;28;20039;-64
2022/09/11 01:49:13;;;;;;;3.65;2.38;;;;;;;16.90;76.22;100651.91;4097452;28;20072;-63
2022/09/11 01:51:22;;;;;;;4.30;2.70;;;;;;;16.82;76.12;100646.69;4095717;29;20071;-63
2022/09/11 01:53:31;;;;;;;7.30;2.58;;;;;;;16.84;76.32;100655.41;4096748;29;20046;-64
2022/09/11 01:55:40;;;;;;;3.35;2.30;;;;;;;16.84;76.13;100665.06;4097503;29;20047;-63
2022/09/11 01:57:49;;;;;;;4.57;2.75;;;;;;;16.84;75.96;100655.41;4105615;28;20497;-63
2022/09/11 01:59:59;;;;;;;4.28;2.30;;;;;;;16.90;76.26;100651.91;4097449;29;20047;-63
2022/09/11 02:02:06;;;;;;;4.38;2.45;;;;;;;16.94;76.36;100653.63;4094584;29;20047;-63
2022/09/11 02:04:14;;;;;;;5.05;2.60;;;;;;;16.95;76.27;100657.97;4096344;29;20061;-63
2022/09/11 02:06:21;;;;;;;4.18;2.60;;;;;;;17.00;76.22;100657.94;4080552;29;20514;-64
2022/09/11 02:08:30;;;;;;;4.10;2.33;;;;;;;17.01;76.30;100657.94;4080810;29;20043;-63
2022/09/11 02:10:36;;;;;;;3.75;2.20;;;;;;;17.00;75.87;100652.69;4097134;28;20047;-64
2022/09/11 02:12:45;;;;;;;5.70;2.53;;;;;;;17.02;75.99;100662.28;4112352;28;20041;-64
2022/09/11 02:14:50;;;;;;;3.90;2.40;;;;;;;17.04;76.30;100663.16;4097722;29;20044;-64
2022/09/11 02:17:05;;;;;;;5.22;3.05;;;;;;;17.04;76.17;100667.50;4089272;28;20047;-64
2022/09/11 02:19:11;;;;;;;4.25;2.20;;;;;;;16.99;76.06;100669.31;4093219;28;20070;-63
2022/09/11 02:21:14;;;;;;;4.55;2.80;;;;;;;17.02;75.83;100672.78;4095698;29;20082;-63
2022/09/11 02:23:17;;;;;;;8.25;3.33;;;;;;;16.97;75.71;100664.09;4098722;28;20126;-62
2022/09/11 02:25:20;;;;;;;5.18;2.50;;;;;;;16.96;75.76;100661.47;4098076;29;20097;-63
2022/09/11 02:27:27;;;;;;;4.68;2.60;;;;;;;16.93;75.74;100662.38;4110387;28;20046;-63
2022/09/11 02:29:31;;;;;;;3.72;2.50;;;;;;;16.92;75.96;100658.00;4100740;29;20035;-64
2022/09/11 02:31:35;;;;;;;5.72;2.97;;;;;;;16.89;76.00;100660.66;4114735;28;20039;-63
2022/09/11 02:33:39;;;;;;;3.38;2.65;;;;;;;16.81;76.00;100665.94;4118547;28;20042;-64
2022/09/11 02:35:47;;;;;;;;;;;;;;;16.68;75.79;100667.78;4115199;28;20047;-63
2022/09/11 02:37:58;;;;;;;3.33;2.63;;;;;;;16.71;75.77;100672.16;4099193;28;19927;-63
2022/09/11 02:40:24;;;;;;;7.45;2.78;;;;;;;16.71;75.49;100662.50;4100414;29;20118;-63
2022/09/11 02:42:42;;;;;;;4.32;2.97;;;;;;;16.72;76.08;100666.88;4100175;28;20039;-63
2022/09/11 02:44:54;;;;;;;3.30;2.83;;;;;;;16.77;75.76;100671.25;4100656;29;20127;-63
2022/09/11 02:47:11;;;;;;;7.75;3.03;;;;;;;16.81;75.55;100686.09;4098687;29;20102;-63
2022/09/11 02:49:25;;;;;;;3.38;3.03;;;;;;;16.79;75.48;100686.06;4099836;28;20094;-63
2022/09/11 02:51:35;;;;;;;3.08;2.60;;;;;;;16.78;76.15;100684.34;4114143;28;20043;-63
2022/09/11 02:53:47;;;;;;;4.75;3.08;;;;;;;16.75;75.66;100684.38;4092300;29;20036;-63
2022/09/11 02:56:00;;;;;;;6.90;3.45;;;;;;;16.79;75.85;100686.06;4112748;28;20130;-63
2022/09/11 02:58:11;;;;;;;6.13;2.47;;;;;;;16.80;76.20;100695.69;4094410;29;20047;-64
2022/09/11 03:00:15;;;;;;;3.67;2.78;;;;;;;16.81;76.46;100696.59;4103525;28;20126;-64
2022/09/11 03:02:18;;;;;;;4.47;3.08;;;;;;;16.82;76.30;100695.69;4107585;28;20111;-63
2022/09/11 03:04:24;;;;;;;4.40;2.97;;;;;;;16.85;76.35;100698.28;4114585;28;20039;-64
2022/09/11 03:06:28;;;;;;;6.63;3.30;;;;;;;16.82;76.18;100700.94;4098039;29;20129;-63
2022/09/11 03:08:31;;;;;;;4.55;3.00;;;;;;;16.77;76.38;100694.88;4101305;28;20035;-63
2022/09/11 03:10:35;;;;;;;6.00;2.97;;;;;;;16.77;76.58;100697.50;4099710;28;20077;-63
2022/09/11 03:12:38;;;;;;;4.60;3.05;;;;;;;16.77;76.38;100694.88;4099873;28;20036;-63
2022/09/11 03:14:41;;;;;;;5.03;3.58;;;;;;;16.83;76.14;100692.19;4112524;28;20484;-63
2022/09/11 03:16:44;;;;;;;5.53;3.10;;;;;;;16.86;75.94;100702.66;4108387;28;20165;-63
2022/09/11 03:18:47;;;;;;;4.93;2.95;;;;;;;16.86;76.46;100702.66;4095576;29;20046;-63
2022/09/11 03:20:52;;;;;;;8.05;3.28;;;;;;;16.87;76.55;100700.06;4099502;29;20445;-63
2022/09/11 03:22:54;;;;;;;5.88;3.25;;;;;;;16.88;76.50;100698.28;4091955;29;20497;-63
2022/09/11 03:24:57;;;;;;;4.20;2.55;;;;;;;16.89;77.01;100698.31;4098667;28;20098;-64
2022/09/11 03:27:03;;;;;;;4.53;2.67;;;;;;;16.92;77.12;100698.28;4100130;29;20040;-64
2022/09/11 03:29:07;;;;;;;3.00;2.55;;;;;;;16.90;77.12;100701.78;4094713;29;20039;-64
2022/09/11 03:31:10;;;;;;;5.70;2.97;;;;;;;16.87;76.96;100704.41;4095142;29;20058;-64
2022/09/11 03:33:13;;;;;;;5.87;3.17;;;;;;;16.84;77.14;100709.69;4094182;29;20066;-64
2022/09/11 03:35:16;;;;;;;5.53;3.20;;;;;;;16.80;76.58;100703.56;4093094;29;20039;-64
2022/09/11 03:37:21;;;;;;;5.30;3.97;;;;;;;16.78;76.30;100712.34;4094215;29;20075;-64
2022/09/11 03:39:24;;;;;;;5.38;3.10;;;;;;;16.71;76.07;100712.38;4096005;29;20066;-64
2022/09/11 03:41:27;;;;;;;5.90;3.92;;;;;;;16.66;76.37;100711.56;4099632;28;20062;-64
2022/09/11 03:43:30;;;;;;;6.75;3.78;;;;;;;16.69;76.34;100715.91;4099047;28;20039;-64
2022/09/11 03:45:34;;;;;;;;;;;;;;;16.51;76.42;100714.28;4084080;29;20071;-64
2022/09/11 03:47:39;;;;;;;6.20;4.32;;;;;;;16.51;76.69;100714.28;4099009;29;19922;-64
2022/09/11 03:49:42;;;;;;;5.97;3.42;;;;;;;16.53;76.25;100721.28;4113231;28;20097;-63
2022/09/11 03:51:46;;;;;;;4.40;2.88;;;;;;;16.62;76.30;100717.72;4114013;28;20416;-64
2022/09/11 03:53:50;;;;;;;7.00;3.85;;;;;;;16.69;76.19;100722.03;4098628;28;20547;-64
2022/09/11 03:55:53;;;;;;;7.25;3.90;;;;;;;16.69;76.07;100722.03;4099740;29;20497;-64
2022/09/11 03:57:57;;;;;;;7.05;3.95;;;;;;;16.69;76.04;100729.91;4094651;28;20035;-64
2022/09/11 04:00:00;;;;;;;5.57;3.35;;;;;;;16.67;75.97;100723.78;4098874;29;20043;-64
2022/09/11 04:02:08;;;;;;;4.95;3.03;;;;;;;16.68;75.97;100735.19;4098251;28;20047;-64
2022/09/11 04:04:14;;;;;;;4.28;3.20;;;;;;;16.71;76.09;100725.53;4098631;28;20477;-64
2022/09/11 04:06:18;;;;;;;6.97;3.28;;;;;;;16.72;76.20;100734.28;4091481;29;20042;-64
2022/09/11 04:08:21;;;;;;;6.40;3.58;;;;;;;16.67;76.00;100738.69;4098949;28;20039;-64
2022/09/11 04:10:26;;;;;;;6.75;3.60;;;;;;;16.67;76.33;100742.16;4114705;28;20118;-64
2022/09/11 04:12:29;;;;;;;5.93;3.78;;;;;;;16.67;76.18;100738.69;4082089;29;20043;-63
2022/09/11 04:14:33;;;;;;;4.30;3.38;;;;;;;16.68;76.39;100743.91;4113016;28;20423;-63
2022/09/11 04:16:38;;;;;;;6.05;3.42;;;;;;;16.75;76.27;100731.63;4099262;28;20039;-63
2022/09/11 04:18:42;;;;;;;7.90;3.03;;;;;;;16.84;76.14;100741.19;4098530;28;20490;-63
2022/09/11 04:20:45;;;;;;;4.35;3.20;;;;;;;16.86;76.57;100744.69;4098413;29;20039;-64
2022/09/11 04:22:48;;;;;;;4.63;3.50;;;;;;;16.88;76.72;100746.44;4097364;29;20035;-63
2022/09/11 04:24:51;;;;;;;4.57;3.00;;;;;;;16.89;76.57;100747.31;4115002;28;20047;-64
2022/09/11 04:26:55;;;;;;;4.80;3.35;;;;;;;16.91;76.62;100750.81;4098431;28;20051;-64
2022/09/11 04:29:03;;;;;;;7.03;3.85;;;;;;;16.89;76.61;100747.31;4098163;28;20422;-63
2022/09/11 04:31:06;;;;;;;7.10;4.10;;;;;;;16.86;76.89;100749.94;4096792;29;20049;-64
2022/09/11 04:33:09;;;;;;;6.00;3.78;;;;;;;16.87;77.36;100749.06;4096713;29;20424;-64
2022/09/11 04:35:13;;;;;;;5.07;3.25;;;;;;;16.89;77.08;100755.19;4110185;28;20527;-63
2022/09/11 04:37:24;;;;;;;4.03;3.42;;;;;;;16.86;77.30;100761.28;4095164;29;20086;-63
2022/09/11 04:39:26;;;;;;;5.57;3.63;;;;;;;16.86;76.92;100761.28;4098429;29;20058;-64
2022/09/11 04:41:30;;;;;;;4.85;3.55;;;;;;;16.84;76.98;100756.97;4098364;29;20434;-63
2022/09/11 04:43:38;;;;;;;8.18;4.20;;;;;;;16.79;76.67;100759.59;4097957;28;20402;-63
2022/09/11 04:45:42;;;;;;;8.68;4.20;;;;;;;16.71;76.46;100761.41;4098086;29;20118;-63
2022/09/11 04:47:46;;;;;;;4.75;3.47;;;;;;;16.66;76.21;100758.81;4097832;28;20126;-63
2022/09/11 04:49:49;;;;;;;5.60;3.72;;;;;;;16.69;76.39;100752.66;4098021;28;20465;-64
2022/09/11 04:51:52;;;;;;;5.57;3.63;;;;;;;16.70;76.67;100754.41;4097217;28;20039;-64
2022/09/11 04:53:59;;;;;;;8.05;3.97;;;;;;;16.73;76.55;100755.28;4081767;29;20039;-63
2022/09/11 04:56:13;;;;;;;8.13;4.97;;;;;;;16.75;76.49;100753.50;4082378;29;20103;-64
2022/09/11 04:58:21;;;;;;;7.50;4.40;;;;;;;16.80;76.63;100760.47;4097332;29;20047;-64
2022/09/11 05:00:25;;;;;;;7.18;4.25;;;;;;;16.80;76.53;100757.84;4113489;28;20045;-64
2022/09/11 05:02:28;;;;;;;5.63;2.70;;;;;;;16.79;77.13;100769.22;4097749;28;20035;-64
2022/09/11 05:04:31;;;;;;;7.05;4.30;;;;;;;16.80;77.57;100768.34;4097550;28;20035;-64
2022/09/11 05:06:36;;;;;;;5.00;3.72;;;;;;;16.79;77.87;100774.47;4098712;29;20031;-64
2022/09/11 05:08:45;;;;;;;7.07;4.07;;;;;;;16.78;77.70;100777.97;4104148;28;20340;-64
2022/09/11 05:10:51;;;;;;;6.35;3.60;;;;;;;16.71;77.77;100783.28;4097166;28;20043;-64
2022/09/11 05:12:55;;;;;;;5.45;3.65;;;;;;;16.70;77.79;100783.28;4098669;28;20055;-64
2022/09/11 05:14:59;;;;;;;6.70;4.13;;;;;;;16.69;77.81;100790.31;4097577;29;20535;-64
2022/09/11 05:17:05;;;;;;;8.55;4.05;;;;;;;16.71;77.90;100792.91;4090844;29;20058;-64
2022/09/11 05:19:12;;;;;;;5.55;3.42;;;;;;;16.71;78.05;100792.91;4098521;28;20107;-63
2022/09/11 05:21:18;;;;;;;6.90;3.33;;;;;;;16.70;77.65;100794.66;4112014;28;20046;-64
2022/09/11 05:23:22;;;;;;;4.90;3.85;;;;;;;16.69;77.53;100799.91;4096667;29;20035;-64
2022/09/11 05:25:25;;;;;;;4.60;4.00;;;;;;;16.71;77.40;100796.41;4098376;29;20039;-63
2022/09/11 05:27:28;;;;;;;5.03;4.18;;;;;;;16.72;77.40;100808.66;4097753;28;20035;-64
2022/09/11 05:29:31;;;;;;;8.48;4.72;;;;;;;16.72;77.33;100800.78;4110640;28;20501;-63
2022/09/11 05:31:43;;;;;;;6.93;3.92;;;;;;;16.69;77.75;100813.03;4089487;29;20046;-64
2022/09/11 05:33:50;;;;;;;6.55;4.50;;;;;;;16.67;77.93;100806.94;4090036;29;20125;-64
2022/09/11 05:35:54;;;;;;;;;;;;;;;16.56;78.46;100812.25;4089976;28;20043;-63
2022/09/11 05:38:00;;;;;;;8.35;4.15;;;;;;;16.63;78.49;100815.69;4093585;29;19954;-63
2022/09/11 05:40:04;;;;;;;8.35;4.97;;;;;;;16.67;78.32;100818.28;4096582;28;20504;-64
2022/09/11 05:42:07;;;;;;;7.95;4.00;;;;;;;16.67;78.56;100820.91;4095335;28;20055;-63
2022/09/11 05:44:14;;;;;;;7.65;4.10;;;;;;;16.67;78.59;100823.53;4098897;28;20042;-63
2022/09/11 05:46:19;;;;;;;6.40;4.47;;;;;;;16.68;78.38;100825.31;4076357;29;20047;-65
2022/09/11 05:48:27;;;;;;;5.15;3.42;;;;;;;16.70;78.38;100823.53;4096168;29;20523;-63
2022/09/11 05:50:33;;;;;;;6.43;4.20;;;;;;;16.68;78.52;100824.44;4095612;29;20039;-63
2022/09/11 05:52:37;;;;;;;7.43;4.82;;;;;;;16.67;78.37;100836.66;4098127;29;20058;-63
2022/09/11 05:54:40;;;;;;;5.85;4.53;;;;;;;16.69;78.40;100834.03;4097836;29;20050;-63
2022/09/11 05:56:43;;;;;;;6.63;4.85;;;;;;;16.67;78.54;100834.03;4082169;29;20047;-64
2022/09/11 05:58:51;;;;;;;7.38;5.07;;;;;;;16.66;78.37;100841.94;4098212;29;20413;-64
2022/09/11 06:01:03;;;;;;;6.07;4.68;;;;;;;16.63;78.10;100842.84;4097289;29;20533;-64
2022/09/11 06:03:07;;;;;;;7.07;4.20;;;;;;;16.62;77.81;100841.09;4079772;29;20071;-64
2022/09/11 06:05:17;;;;;;;6.28;4.30;;;;;;;16.61;77.71;100841.97;4109793;28;20130;-64
2022/09/11 06:07:21;;;;;;;7.55;5.13;;;;;;;16.66;77.75;100841.94;4098226;29;20147;-65
2022/09/11 06:09:25;;;;;;;7.50;4.75;;;;;;;16.69;77.56;100841.91;4112211;28;20035;-65
2022/09/11 06:11:28;;;;;;;7.05;5.63;;;;;;;16.72;77.25;100844.56;4096658;28;20409;-64
2022/09/11 06:13:33;;;;;;;6.85;5.28;;;;;;;16.72;77.27;100848.03;4095522;28;20417;-65
2022/09/11 06:15:43;;;;;;;6.35;4.80;;;;;;;16.72;77.57;100852.44;4112945;28;20074;-67
2022/09/11 06:17:49;;;;;;;6.25;4.63;;;;;;;16.67;77.69;100854.19;4104788;28;20114;-69
2022/09/11 06:19:53;;;;;;;6.50;4.32;;;;;;;16.61;77.72;100868.22;4090724;29;20078;-73
2022/09/11 06:21:56;;;;;;;8.13;5.40;;;;;;;16.62;77.83;100867.34;4096542;28;20071;-69
2022/09/11 06:24:05;;;;;;;7.45;5.53;;;;;;;16.70;77.81;100856.78;4101587;28;20039;-69
2022/09/11 06:26:11;;;;;;;11.10;5.22;;;;;;;16.73;77.75;100864.66;4097853;29;20603;-66
2022/09/11 06:28:16;;;;;;;5.32;4.30;;;;;;;16.72;78.15;100874.28;4077425;29;20050;-64
2022/09/11 06:30:19;;;;;;;6.10;4.82;;;;;;;16.79;78.34;100863.75;4098043;29;20130;-62
2022/09/11 06:32:23;;;;;;;6.47;5.22;;;;;;;16.81;78.27;100862.88;4096936;28;20035;-67
2022/09/11 06:34:26;;;;;;;8.15;4.55;;;;;;;16.85;78.40;100868.97;4097228;28;20042;-65
2022/09/11 06:36:32;;;;;;;7.07;4.28;;;;;;;16.90;78.20;100869.88;4096975;28;20126;-66
2022/09/11 06:38:40;;;;;;;7.18;4.60;;;;;;;16.95;78.14;100869.84;4077899;29;20092;-68
2022/09/11 06:40:49;;;;;;;5.95;5.13;;;;;;;17.01;77.44;100869.78;4079572;29;20532;-69
2022/09/11 06:42:53;;;;;;;;;;;;;;;16.96;77.56;100872.44;4105472;28;20130;-69
2022/09/11 06:45:01;;;;;;;6.85;4.97;;;;;;;17.04;77.42;100869.78;4095240;28;19930;-68
2022/09/11 06:47:05;;;;;;;6.05;4.35;;;;;;;17.15;77.10;100872.34;4090755;28;20035;-69
2022/09/11 06:49:10;;;;;;;4.72;3.97;;;;;;;17.23;76.71;100871.41;4091050;29;20039;-68
2022/09/11 06:51:34;;;;;;;6.72;4.93;;;;;;;17.30;76.62;100877.50;4095110;29;20043;-68
2022/09/11 06:53:37;;;;;;;7.47;4.85;;;;;;;17.25;76.05;100874.91;4098160;28;20130;-68
2022/09/11 06:55:44;;;;;;;5.85;4.53;;;;;;;17.30;76.16;100877.50;4092055;28;20035;-67
2022/09/11 06:57:52;;;;;;;6.45;4.70;;;;;;;17.33;75.64;100881.84;4107461;28;20503;-67
2022/09/11 07:00:00;;;;;;;8.13;5.35;;;;;;;17.32;75.29;100873.09;4092159;29;20974;-67
2022/09/11 07:02:08;;;;;;;6.18;4.03;;;;;;;17.37;75.39;100883.59;4093835;28;20040;-67
2022/09/11 07:04:11;;;;;;;7.53;5.05;;;;;;;17.32;75.04;100874.84;4105349;28;20146;-66
2022/09/11 07:06:15;;;;;;;5.45;3.90;;;;;;;17.31;75.22;100881.88;4094979;28;20043;-66
2022/09/11 07:08:20;;;;;;;8.95;5.00;;;;;;;17.25;74.84;100874.03;4097141;28;20051;-66
2022/09/11 07:10:27;;;;;;;7.90;4.30;;;;;;;17.25;74.60;100876.66;4095909;28;20122;-66
2022/09/11 07:12:33;;;;;;;5.03;4.38;;;;;;;17.31;74.71;100873.97;4111594;28;20115;-65
2022/09/11 07:14:38;;;;;;;7.30;4.20;;;;;;;17.39;75.24;100879.19;4095770;29;20557;-65
2022/09/11 07:16:49;;;;;;;6.30;4.47;;;;;;;17.41;75.29;100873.03;4112001;28;20640;-66
2022/09/11 07:18:52;;;;;;;5.97;4.55;;;;;;;17.42;75.31;100872.16;4099855;28;20062;-65
2022/09/11 07:20:56;;;;;;;7.15;5.05;;;;;;;17.44;75.13;100873.00;4099844;28;20039;-65
2022/09/11 07:22:59;;;;;;;14.70;5.45;;;;;;;17.44;75.11;100877.41;4082878;29;20102;-66
2022/09/11 07:25:06;;;;;;;6.35;4.40;;;;;;;17.44;74.65;100878.25;4093364;28;20028;-66
2022/09/11 07:27:13;;;;;;;8.52;4.97;;;;;;;17.56;74.17;100885.19;4096852;28;20039;-66
2022/09/11 07:29:17;;;;;;;6.93;4.95;;;;;;;17.58;74.17;100882.53;4117676;28;20062;-66
2022/09/11 07:31:25;;;;;;;7.32;5.35;;;;;;;17.66;74.13;100886.00;4094756;29;20036;-66
2022/09/11 07:33:27;;;;;;;10.75;5.13;;;;;;;17.70;73.81;100882.44;4099252;29;20485;-67
2022/09/11 07:35:36;;;;;;;5.60;4.25;;;;;;;17.76;74.16;100886.78;4097526;28;20031;-67
2022/09/11 07:37:39;;;;;;;7.40;5.10;;;;;;;17.78;73.51;100890.28;4099247;29;20039;-67
2022/09/11 07:39:43;;;;;;;8.10;5.00;;;;;;;17.85;73.39;100888.47;4098173;28;20035;-67
2022/09/11 07:41:53;;;;;;;7.32;5.07;;;;;;;17.85;73.31;100886.69;4099658;29;20295;-68
2022/09/11 07:44:02;;;;;;;10.93;5.57;;;;;;;17.87;73.86;100890.22;4082638;29;20134;-68
2022/09/11 07:46:07;;;;;;;5.22;4.38;;;;;;;17.94;73.60;100891.03;4097844;28;20034;-67
2022/09/11 07:48:11;;;;;;;6.93;5.35;;;;;;;18.01;73.74;100891.88;4093579;29;20134;-68
2022/09/11 07:50:17;;;;;;;9.05;5.82;;;;;;;18.00;72.56;100903.25;4113988;28;20126;-68
2022/09/11 07:52:20;;;;;;;9.30;6.38;;;;;;;18.02;72.59;100894.47;4112595;28;20117;-68
2022/09/11 07:54:27;;;;;;;9.18;5.70;;;;;;;18.07;72.67;100897.91;4097521;28;20051;-67
2022/09/11 07:56:30;;;;;;;9.45;6.90;;;;;;;18.10;72.00;100897.88;4109507;28;20082;-67
2022/09/11 07:58:36;;;;;;;;;;;;;;;18.19;72.27;100898.69;4109681;28;20079;-67
2022/09/11 08:00:40;;;;;;;9.73;7.10;;;;;;;18.39;71.80;100888.81;4115054;28;19981;-68
2022/09/11 08:02:50;;;;;;;10.35;6.97;;;;;;;18.48;71.15;100898.38;4111309;28;20409;-68
2022/09/11 08:05:05;;;;;;;10.65;7.45;;;;;;;18.60;70.40;100886.81;4098170;28;20039;-68
2022/09/11 08:07:09;;;;;;;10.68;6.93;;;;;;;18.60;69.92;100887.72;4098933;29;20047;-68
2022/09/11 08:09:14;;;;;;;10.13;8.55;;;;;;;18.52;70.05;100891.31;4093891;28;20051;-67
2022/09/11 08:11:24;;;;;;;9.35;8.00;;;;;;;18.51;69.93;100892.22;4098874;29;20039;-68
2022/09/11 08:13:27;;;;;;;9.95;7.32;;;;;;;18.53;69.52;100895.69;4088114;28;20047;-68
2022/09/11 08:15:30;;;;;;;8.85;7.03;;;;;;;18.50;69.62;100901.88;4093335;28;20071;-68
2022/09/11 08:17:34;;;;;;;8.77;7.32;;;;;;;18.48;69.24;100898.38;4091382;29;20048;-68
2022/09/11 08:19:37;;;;;;;8.32;6.97;;;;;;;18.48;69.28;100898.38;4098773;29;20039;-68
2022/09/11 08:21:41;;;;;;;12.77;7.20;;;;;;;18.58;68.83;100904.41;4098838;29;20054;-68
2022/09/11 08:23:47;;;;;;;8.05;6.40;;;;;;;18.66;69.40;100899.91;4101318;28;20094;-68
2022/09/11 08:25:52;;;;;;;10.77;7.63;;;;;;;18.64;68.34;100896.44;4109752;28;20113;-68
2022/09/11 08:27:56;;;;;;;10.38;7.57;;;;;;;18.73;68.18;100904.22;4098785;29;20039;-68
2022/09/11 08:29:59;;;;;;;9.57;7.55;;;;;;;18.77;68.45;100894.53;4096983;29;20286;-68
2022/09/11 08:32:03;;;;;;;7.30;6.13;;;;;;;18.84;68.25;100893.56;4097936;29;20047;-68
2022/09/11 08:34:09;;;;;;;8.77;7.88;;;;;;;18.79;68.06;100892.72;4097779;29;20043;-69
2022/09/11 08:36:14;;;;;;;10.70;8.02;;;;;;;18.77;68.09;100899.78;4097992;29;20039;-69
2022/09/11 08:38:20;;;;;;;11.70;7.82;;;;;;;18.93;67.91;100901.34;4081720;29;20055;-68
2022/09/11 08:40:23;;;;;;;9.65;7.70;;;;;;;18.83;67.71;100911.09;4109145;28;20085;-67
2022/09/11 08:42:27;;;;;;;10.55;8.38;;;;;;;18.69;68.00;100910.44;4097554;29;20085;-68
2022/09/11 08:44:38;;;;;;;11.57;9.68;;;;;;;18.86;66.68;100914.59;4097593;29;20039;-68
2022/09/11 08:46:55;;;;;;;11.02;9.35;;;;;;;18.75;67.02;100918.25;4099111;28;20051;-68
2022/09/11 08:49:04;;;;;;;13.00;10.30;;;;;;;18.77;66.63;100913.81;4092627;29;20047;-67
2022/09/11 08:51:09;;;;;;;10.20;8.00;;;;;;;18.66;67.37;100913.06;4093793;28;20722;-69
2022/09/11 08:53:16;;;;;;;9.88;8.73;;;;;;;18.62;67.63;100921.94;4095800;28;20047;-69
2022/09/11 08:55:28;;;;;;;10.32;8.82;;;;;;;18.61;68.07;100925.44;4110014;28;20126;-69
2022/09/11 08:57:40;;;;;;;9.25;7.93;;;;;;;18.67;67.90;100922.72;4095757;28;20043;-69
2022/09/11 09:00:14;;;;;;;12.32;8.77;;;;;;;18.67;67.74;100926.25;4113268;28;20039;-67
2022/09/11 09:02:58;;;;;;;10.38;7.70;;;;;;;18.83;67.87;100931.31;4101473;28;20109;-68
2022/09/11 09:05:16;;;;;;;9.25;7.20;;;;;;;19.01;67.40;100920.59;4097531;29;20050;-68
2022/09/11 09:07:28;;;;;;;11.10;7.15;;;;;;;19.19;66.96;100926.50;4102524;28;20047;-69
2022/09/11 09:09:41;;;;;;;11.23;8.38;;;;;;;19.42;66.16;100918.25;4098873;29;20047;-69
2022/09/11 09:11:54;;;;;;;12.25;8.23;;;;;;;19.80;63.87;100924.72;4098257;29;20035;-69
2022/09/11 09:14:28;;;;;;;11.57;8.60;;;;;;;19.61;64.66;100923.22;4097961;28;20094;-69
2022/09/11 09:16:44;;;;;;;10.07;7.85;;;;;;;19.59;65.03;100927.66;4084301;29;20552;-68
2022/09/11 09:18:55;;;;;;;12.32;8.05;;;;;;;19.59;65.27;100927.66;4098742;29;20074;-69
2022/09/11 09:21:02;;;;;;;11.55;8.07;;;;;;;19.66;64.71;100932.81;4098632;28;20043;-69
2022/09/11 09:23:17;;;;;;;10.98;8.95;;;;;;;19.49;64.43;100929.56;4098429;29;20130;-68
2022/09/11 09:25:23;;;;;;;10.75;7.70;;;;;;;19.38;64.87;100927.09;4114497;28;20412;-69
2022/09/11 09:27:35;;;;;;;10.48;7.70;;;;;;;19.39;64.88;100934.13;4095655;29;20043;-68
2022/09/11 09:29:40;;;;;;;10.80;8.18;;;;;;;19.32;65.07;100937.75;4098576;29;20401;-69
2022/09/11 09:31:50;;;;;;;14.05;7.78;;;;;;;19.36;64.59;100932.41;4097991;29;20038;-68
2022/09/11 09:34:00;;;;;;;10.82;7.88;;;;;;;19.29;64.59;100932.50;4095963;28;20186;-69
2022/09/11 09:36:15;;;;;;;10.05;7.82;;;;;;;19.26;64.62;100927.25;4096236;28;20043;-69
2022/09/11 09:38:22;;;;;;;9.98;7.70;;;;;;;19.28;64.46;100936.03;4077575;29;20047;-69
2022/09/11 09:40:32;;;;;;;12.82;8.68;;;;;;;19.42;64.42;100934.06;4091904;28;20118;-69
2022/09/11 09:42:54;;;;;;;9.57;6.85;;;;;;;19.59;64.76;100938.22;4093964;29;20127;-69
2022/09/11 09:45:14;;;;;;;9.77;6.55;;;;;;;19.73;64.28;100928.31;4088246;29;20074;-69
2022/09/11 09:47:18;;;;;;;9.38;6.97;;;;;;;19.70;63.87;100926.59;4107222;28;20066;-68
2022/09/11 09:49:49;;;;;;;9.50;6.43;;;;;;;19.93;63.47;100928.03;4095873;28;20035;-68
2022/09/11 09:51:55;;;;;;;10.95;7.30;;;;;;;20.06;62.50;100933.94;4044873;29;20060;-69